Time;durP1;ratioP1;P1;durP2;ratioP2;P2;SDS_P1;SDS_P2;PMS_P1;PMS_P2;Temp;Humidity;BMP_temperature;BMP_pressure;BME280_temperature;BME280_humidity;BME280_pressure;Samples;Min_cycle;Max_cycle;Signal;HPM_P1;HPM_P2
2022/04/11 00:02:00;;;;;;;4.18;1.70;;;5.10;94.10;;;;;;5074694;28;20032;-83
2022/04/11 00:04:26;;;;;;;5.78;2.20;;;5.10;94.10;;;;;;5060875;28;20032;-84
2022/04/11 00:06:52;;;;;;;1.98;1.50;;;5.10;94.30;;;;;;5070617;28;20432;-83
2022/04/11 00:09:17;;;;;;;3.05;1.60;;;5.00;94.50;;;;;;5075713;28;20033;-82
2022/04/11 00:11:43;;;;;;;5.57;2.08;;;5.00;94.20;;;;;;5053982;28;20494;-82
2022/04/11 00:14:08;;;;;;;5.00;2.13;;;5.00;94.10;;;;;;5061475;28;20035;-84
2022/04/11 00:16:34;;;;;;;6.25;2.75;;;5.00;94.20;;;;;;5060325;28;20032;-82
2022/04/11 00:18:59;;;;;;;6.75;3.08;;;5.00;94.30;;;;;;5057006;28;20045;-80
2022/04/11 00:21:25;;;;;;;6.85;3.20;;;4.90;94.30;;;;;;5079159;28;20032;-80
2022/04/11 00:23:51;;;;;;;3.80;2.45;;;4.90;94.40;;;;;;5077153;28;20036;-82
2022/04/11 00:26:16;;;;;;;4.78;2.22;;;4.90;94.60;;;;;;5055648;28;20025;-81
2022/04/11 00:28:41;;;;;;;4.57;2.58;;;4.80;94.60;;;;;;5073623;28;20043;-81
2022/04/11 00:31:07;;;;;;;3.33;2.00;;;4.80;94.70;;;;;;5090421;28;20143;-81
2022/04/11 00:33:32;;;;;;;4.95;1.80;;;4.80;94.70;;;;;;5087914;28;20032;-81
2022/04/11 00:35:58;;;;;;;2.20;1.52;;;4.80;94.70;;;;;;5075967;28;20039;-82
2022/04/11 00:38:23;;;;;;;3.67;1.80;;;4.70;94.70;;;;;;5064507;28;20355;-82
2022/04/11 00:40:49;;;;;;;3.75;1.92;;;4.70;94.70;;;;;;5061186;28;20039;-85
2022/04/11 00:43:32;;;;;;;2.72;1.88;;;4.70;94.80;;;;;;5068427;28;20484;-82
2022/04/11 00:45:57;;;;;;;5.50;1.55;;;4.70;94.90;;;;;;5072591;28;20016;-81
2022/04/11 00:48:23;;;;;;;2.85;1.52;;;4.70;95.00;;;;;;5061484;28;20393;-82
2022/04/11 00:50:50;;;;;;;7.53;2.10;;;4.70;95.10;;;;;;5059244;28;20034;-83
2022/04/11 00:53:15;;;;;;;4.70;1.75;;;4.70;95.20;;;;;;5063635;28;20052;-83
2022/04/11 00:55:42;;;;;;;2.13;1.67;;;4.70;95.30;;;;;;5080209;28;20032;-82
2022/04/11 00:58:07;;;;;;;4.50;1.63;;;4.70;95.30;;;;;;5065386;28;20028;-82
2022/04/11 01:00:34;;;;;;;4.53;2.03;;;4.70;95.30;;;;;;5068176;28;20531;-82
2022/04/11 01:03:00;;;;;;;4.38;1.80;;;4.80;95.40;;;;;;5046759;28;20037;-83
2022/04/11 01:05:25;;;;;;;4.85;2.55;;;4.80;95.30;;;;;;5047222;28;20039;-81
2022/04/11 01:07:51;;;;;;;3.17;1.50;;;4.90;95.20;;;;;;5065592;28;20457;-83
2022/04/11 01:10:17;;;;;;;3.97;1.80;;;4.90;95.20;;;;;;5066316;28;20025;-82
2022/04/11 01:12:42;;;;;;;2.50;1.52;;;4.90;95.10;;;;;;5079764;28;20028;-83
2022/04/11 01:15:08;;;;;;;1.95;1.27;;;4.90;95.10;;;;;;5076247;28;20028;-82
2022/04/11 01:17:35;;;;;;;3.72;1.70;;;5.00;95.00;;;;;;5053380;28;20412;-83
2022/04/11 01:20:12;;;;;;;2.83;1.70;;;5.00;95.00;;;;;;5063577;28;20028;-83
2022/04/11 01:22:39;;;;;;;3.45;1.80;;;5.00;95.10;;;;;;5077845;28;20028;-81
2022/04/11 01:25:05;;;;;;;2.65;1.70;;;5.00;95.00;;;;;;5077438;28;20031;-82
2022/04/11 01:27:31;;;;;;;4.10;1.83;;;5.00;95.10;;;;;;5058976;28;20032;-81
2022/04/11 01:29:57;;;;;;;1.95;1.35;;;5.00;95.00;;;;;;5081641;28;20108;-80
2022/04/11 01:32:23;;;;;;;9.40;2.00;;;5.00;95.00;;;;;;5081403;28;20052;-81
2022/04/11 01:34:48;;;;;;;4.57;1.77;;;4.90;95.10;;;;;;5072378;28;20024;-81
2022/04/11 01:37:14;;;;;;;3.78;2.20;;;4.90;95.10;;;;;;5064340;28;20025;-80
2022/04/11 01:39:39;;;;;;;3.35;1.83;;;4.90;95.20;;;;;;5072780;28;20077;-81
2022/04/11 01:42:05;;;;;;;7.03;1.70;;;4.90;95.20;;;;;;5073130;28;20044;-81
2022/04/11 01:44:30;;;;;;;2.15;1.58;;;4.90;95.20;;;;;;5055424;28;20465;-84
2022/04/11 01:46:56;;;;;;;2.70;1.83;;;4.90;95.10;;;;;;5060720;28;20020;-81
2022/04/11 01:49:21;;;;;;;3.45;1.65;;;4.90;95.20;;;;;;5054883;28;20372;-81
2022/04/11 01:51:47;;;;;;;5.60;1.58;;;4.90;95.20;;;;;;5065102;28;20046;-83
2022/04/11 01:54:12;;;;;;;2.95;1.42;;;4.90;95.10;;;;;;5056755;28;20016;-82
2022/04/11 01:56:38;;;;;;;4.68;1.40;;;4.90;95.10;;;;;;5053718;28;20070;-82
2022/04/11 01:59:03;;;;;;;2.58;1.73;;;4.90;95.10;;;;;;5062712;28;20469;-83
2022/04/11 02:01:29;;;;;;;3.42;1.80;;;4.90;95.00;;;;;;5070205;28;20033;-82
2022/04/11 02:03:54;;;;;;;3.00;1.73;;;5.00;95.10;;;;;;5069825;28;20043;-83
2022/04/11 02:06:20;;;;;;;2.10;1.50;;;5.00;95.20;;;;;;5070550;28;20032;-83
2022/04/11 02:08:45;;;;;;;3.97;2.08;;;5.00;95.10;;;;;;5063591;28;20020;-82
2022/04/11 02:11:11;;;;;;;4.43;2.03;;;5.00;95.30;;;;;;5069987;28;20024;-82
2022/04/11 02:13:37;;;;;;;4.32;2.03;;;5.00;95.20;;;;;;5056117;28;20449;-82
2022/04/11 02:16:02;;;;;;;3.45;2.08;;;5.10;95.20;;;;;;5071493;28;20357;-85
2022/04/11 02:18:28;;;;;;;3.55;1.80;;;5.10;95.20;;;;;;5071227;28;20060;-82
2022/04/11 02:20:53;;;;;;;2.67;1.40;;;5.10;95.30;;;;;;5071861;28;20067;-82
2022/04/11 02:23:19;;;;;;;2.80;1.92;;;5.10;95.30;;;;;;5056391;28;20388;-83
2022/04/11 02:25:44;;;;;;;4.78;1.92;;;5.10;95.30;;;;;;5059530;28;20099;-82
2022/04/11 02:28:10;;;;;;;3.92;1.95;;;5.10;95.20;;;;;;5051589;28;20031;-84
2022/04/11 02:30:36;;;;;;;2.78;1.80;;;5.10;95.30;;;;;;5055659;28;20115;-85
2022/04/11 02:33:01;;;;;;;3.78;2.03;;;5.10;95.30;;;;;;5053281;28;20110;-82
2022/04/11 02:35:27;;;;;;;6.85;2.08;;;5.10;95.30;;;;;;5077716;28;20026;-82
2022/04/11 02:37:53;;;;;;;4.55;2.05;;;5.10;95.30;;;;;;5055479;28;20043;-82
2022/04/11 02:40:19;;;;;;;3.15;2.15;;;5.10;95.20;;;;;;5064010;28;20354;-83
2022/04/11 02:42:45;;;;;;;2.88;1.80;;;5.10;95.30;;;;;;5060471;28;20035;-82
2022/04/11 02:45:12;;;;;;;4.35;1.80;;;5.00;95.30;;;;;;5076636;28;20101;-86
2022/04/11 02:47:38;;;;;;;1.80;1.48;;;5.00;95.30;;;;;;5071302;28;20182;-82
2022/04/11 02:50:05;;;;;;;4.07;1.77;;;5.00;95.20;;;;;;5056689;28;20108;-83
2022/04/11 02:52:30;;;;;;;3.40;2.15;;;5.00;95.10;;;;;;5059531;28;20036;-84
2022/04/11 02:54:56;;;;;;;4.20;1.58;;;5.10;95.10;;;;;;5052029;28;20016;-82
2022/04/11 02:57:22;;;;;;;4.55;2.10;;;5.10;95.10;;;;;;5052147;28;20131;-82
2022/04/11 02:59:48;;;;;;;4.18;1.67;;;5.10;95.10;;;;;;5074726;28;20078;-81
2022/04/11 03:02:14;;;;;;;5.45;2.33;;;5.00;95.10;;;;;;5068509;28;20417;-83
2022/04/11 03:04:40;;;;;;;2.50;1.60;;;5.00;95.00;;;;;;5073040;28;20036;-82
2022/04/11 03:07:05;;;;;;;4.40;1.92;;;5.00;94.90;;;;;;5070473;28;20384;-82
2022/04/11 03:09:31;;;;;;;5.25;2.22;;;5.00;94.90;;;;;;5072772;28;20522;-82
2022/04/11 03:11:56;;;;;;;3.30;2.40;;;5.00;94.90;;;;;;5056697;28;20410;-83
2022/04/11 03:14:22;;;;;;;3.25;2.25;;;4.90;95.00;;;;;;5056560;28;20365;-82
2022/04/11 03:16:48;;;;;;;4.57;2.30;;;4.90;95.10;;;;;;5068459;28;20016;-82
2022/04/11 03:19:13;;;;;;;3.38;1.98;;;4.80;95.10;;;;;;5051833;28;20013;-83
2022/04/11 03:21:39;;;;;;;5.47;2.40;;;4.80;95.10;;;;;;5068087;28;20043;-83
2022/04/11 03:24:05;;;;;;;3.72;2.50;;;4.80;95.20;;;;;;5070936;28;20090;-84
2022/04/11 03:26:31;;;;;;;5.20;2.05;;;4.70;95.20;;;;;;5086043;28;20032;-83
2022/04/11 03:28:56;;;;;;;3.28;2.35;;;4.60;95.30;;;;;;5071582;28;20023;-84
2022/04/11 03:31:22;;;;;;;3.05;2.22;;;4.60;95.50;;;;;;5063811;28;20036;-83
2022/04/11 03:33:47;;;;;;;6.53;2.45;;;4.50;95.50;;;;;;5059942;28;20037;-83
2022/04/11 03:36:13;;;;;;;4.93;2.53;;;4.50;95.60;;;;;;5043157;28;20153;-83
2022/04/11 03:38:38;;;;;;;2.10;1.65;;;4.40;95.70;;;;;;5064344;28;20032;-81
2022/04/11 03:41:04;;;;;;;4.78;2.33;;;4.40;95.70;;;;;;5044859;28;20392;-82
2022/04/11 03:43:29;;;;;;;5.18;2.53;;;4.30;95.80;;;;;;5063577;28;20029;-83
2022/04/11 03:45:55;;;;;;;3.90;2.22;;;4.30;95.80;;;;;;5045149;28;20043;-82
2022/04/11 03:48:20;;;;;;;5.55;2.55;;;4.20;95.80;;;;;;5053781;28;20025;-82
2022/04/11 03:50:46;;;;;;;2.80;1.75;;;4.20;95.80;;;;;;5058040;28;20025;-83
2022/04/11 03:53:12;;;;;;;3.05;2.20;;;4.20;96.00;;;;;;5070328;28;20082;-83
2022/04/11 03:55:37;;;;;;;3.25;1.95;;;4.20;95.90;;;;;;5078486;28;20132;-81
2022/04/11 03:58:03;;;;;;;3.03;2.25;;;4.10;95.90;;;;;;5066151;28;20016;-82
2022/04/11 04:00:28;;;;;;;4.90;2.30;;;4.20;96.10;;;;;;5060890;28;20020;-82
2022/04/11 04:03:04;;;;;;;7.28;3.75;;;4.10;96.20;;;;;;5050235;28;20072;-82
2022/04/11 04:05:29;;;;;;;4.43;2.42;;;4.00;96.40;;;;;;5062711;28;20020;-82
2022/04/11 04:07:55;;;;;;;2.80;2.22;;;3.90;96.60;;;;;;5070303;28;20028;-83
2022/04/11 04:10:21;;;;;;;4.18;2.30;;;3.80;96.70;;;;;;5065824;28;20047;-83
2022/04/11 04:12:46;;;;;;;3.85;2.53;;;3.80;96.70;;;;;;5075480;28;20037;-82
2022/04/11 04:15:12;;;;;;;4.60;2.53;;;3.80;96.70;;;;;;5065263;28;20037;-83
2022/04/11 04:17:38;;;;;;;3.78;2.00;;;3.70;96.70;;;;;;5067027;28;20031;-83
2022/04/11 04:20:04;;;;;;;6.15;2.42;;;3.80;96.70;;;;;;5064816;28;20023;-82
2022/04/11 04:22:30;;;;;;;2.58;1.85;;;3.80;96.80;;;;;;5063291;28;20020;-81
2022/04/11 04:24:56;;;;;;;5.22;2.72;;;3.70;96.80;;;;;;5053926;28;20051;-82
2022/04/11 04:27:22;;;;;;;5.68;2.35;;;3.70;96.80;;;;;;5060389;28;20033;-84
2022/04/11 04:29:47;;;;;;;3.72;2.47;;;3.80;96.80;;;;;;5049237;28;20055;-84
2022/04/11 04:32:12;;;;;;;7.00;2.70;;;3.80;96.80;;;;;;5060051;28;20037;-83
2022/04/11 04:34:38;;;;;;;5.45;2.72;;;3.80;96.70;;;;;;5047041;28;20548;-83
2022/04/11 04:37:04;;;;;;;3.45;2.67;;;3.80;97.00;;;;;;5042820;28;20029;-82
2022/04/11 04:39:30;;;;;;;4.75;2.42;;;3.70;96.80;;;;;;5061193;28;20029;-82
2022/04/11 04:41:55;;;;;;;3.42;3.05;;;3.70;96.80;;;;;;5042124;28;20024;-83
2022/04/11 04:44:21;;;;;;;5.95;2.80;;;3.70;96.80;;;;;;5063393;28;20024;-81
2022/04/11 04:46:46;;;;;;;8.57;2.80;;;3.70;96.80;;;;;;5061029;28;20032;-84
2022/04/11 04:49:11;;;;;;;2.45;2.22;;;3.70;96.90;;;;;;5044216;28;20017;-83
2022/04/11 04:51:37;;;;;;;5.50;2.30;;;3.70;96.90;;;;;;5077722;28;20457;-83
2022/04/11 04:54:02;;;;;;;7.75;2.65;;;3.80;96.90;;;;;;5059014;28;20098;-84
2022/04/11 04:56:31;;;;;;;5.75;3.10;;;3.70;96.80;;;;;;5067851;28;20033;-83
2022/04/11 04:58:56;;;;;;;3.28;2.25;;;3.80;96.80;;;;;;5050321;28;20016;-82
2022/04/11 05:01:22;;;;;;;3.72;2.75;;;3.80;96.80;;;;;;5042499;28;20031;-81
2022/04/11 05:03:48;;;;;;;5.38;2.63;;;3.80;96.70;;;;;;5040735;28;20025;-82
2022/04/11 05:06:13;;;;;;;3.60;2.75;;;3.90;96.70;;;;;;5061164;28;20107;-84
2022/04/11 05:08:39;;;;;;;4.40;2.42;;;3.90;96.70;;;;;;5062678;28;20024;-82
2022/04/11 05:11:04;;;;;;;3.22;2.30;;;3.90;96.60;;;;;;5044940;28;20513;-82
2022/04/11 05:13:30;;;;;;;6.80;2.83;;;3.90;96.70;;;;;;5076005;28;20082;-82
2022/04/11 05:15:55;;;;;;;6.05;3.28;;;3.90;96.60;;;;;;5075509;28;20082;-83
2022/04/11 05:18:21;;;;;;;3.53;2.63;;;3.90;96.60;;;;;;5052528;28;20445;-82
2022/04/11 05:20:47;;;;;;;3.35;2.72;;;4.00;96.60;;;;;;5052206;28;20025;-81
2022/04/11 05:23:12;;;;;;;7.00;3.28;;;4.00;96.50;;;;;;5064516;28;20024;-82
2022/04/11 05:25:38;;;;;;;6.07;3.28;;;4.00;96.50;;;;;;5050590;28;20530;-82
2022/04/11 05:28:03;;;;;;;7.30;3.15;;;4.00;96.50;;;;;;5068449;28;20089;-81
2022/04/11 05:30:35;;;;;;;4.15;3.00;;;4.10;96.40;;;;;;5070647;28;20400;-82
2022/04/11 05:33:02;;;;;;;8.10;4.38;;;4.10;96.40;;;;;;5070065;28;20028;-80
2022/04/11 05:35:27;;;;;;;4.25;3.15;;;4.10;96.30;;;;;;5068342;28;20056;-83
2022/04/11 05:37:53;;;;;;;4.05;2.60;;;4.10;96.30;;;;;;5057970;28;20180;-82
2022/04/11 05:40:18;;;;;;;3.50;2.53;;;4.20;96.30;;;;;;5069822;28;20119;-82
2022/04/11 05:42:44;;;;;;;4.10;2.95;;;4.30;96.20;;;;;;5070216;28;20032;-83
2022/04/11 05:45:10;;;;;;;4.78;3.08;;;4.30;96.20;;;;;;5069388;28;20032;-82
2022/04/11 05:47:35;;;;;;;7.32;3.03;;;4.30;96.10;;;;;;5068932;28;20373;-82
2022/04/11 05:50:01;;;;;;;3.08;2.50;;;4.40;96.00;;;;;;5052908;28;20020;-82
2022/04/11 05:52:26;;;;;;;4.65;3.20;;;4.40;96.00;;;;;;5053077;28;20020;-82
2022/04/11 05:54:52;;;;;;;4.90;2.78;;;4.50;95.90;;;;;;5053157;28;20028;-81
2022/04/11 05:57:17;;;;;;;4.20;3.15;;;4.50;95.80;;;;;;5070642;28;20448;-82
2022/04/11 05:59:43;;;;;;;6.80;3.40;;;4.60;95.80;;;;;;5052553;28;20070;-82
2022/04/11 06:02:10;;;;;;;3.00;2.40;;;4.60;95.60;;;;;;5071859;28;20099;-82
2022/04/11 06:04:36;;;;;;;4.25;2.95;;;4.70;95.50;;;;;;5072798;28;20028;-82
2022/04/11 06:07:02;;;;;;;3.83;2.50;;;4.70;95.50;;;;;;5069934;28;20024;-82
2022/04/11 06:09:27;;;;;;;8.38;2.50;;;4.80;95.40;;;;;;5071460;28;20150;-85
2022/04/11 06:11:53;;;;;;;3.28;2.30;;;4.90;95.20;;;;;;5071222;28;20070;-82
2022/04/11 06:14:18;;;;;;;4.25;2.42;;;4.90;95.00;;;;;;5072335;28;20460;-84
2022/04/11 06:16:44;;;;;;;5.32;3.05;;;5.00;94.70;;;;;;5051961;28;20056;-82
2022/04/11 06:19:09;;;;;;;3.92;3.00;;;5.00;94.70;;;;;;5071086;28;20031;-82
2022/04/11 06:21:35;;;;;;;5.30;2.97;;;5.10;94.60;;;;;;5070578;28;20041;-82
2022/04/11 06:24:00;;;;;;;4.53;3.63;;;5.20;94.50;;;;;;5069332;28;20519;-82
2022/04/11 06:26:26;;;;;;;4.40;2.65;;;5.30;94.20;;;;;;5067600;28;20461;-82
2022/04/11 06:28:51;;;;;;;4.68;2.25;;;5.40;94.10;;;;;;5090212;28;20059;-83
2022/04/11 06:31:17;;;;;;;5.32;2.40;;;5.40;93.80;;;;;;5089856;28;20395;-83
2022/04/11 06:33:42;;;;;;;4.18;2.33;;;5.50;93.70;;;;;;5052130;28;20020;-83
2022/04/11 06:36:08;;;;;;;3.42;2.38;;;5.60;93.70;;;;;;5050793;28;20016;-82
2022/04/11 06:38:34;;;;;;;2.47;2.03;;;5.70;93.40;;;;;;5064517;28;20025;-82
2022/04/11 06:40:59;;;;;;;5.47;2.63;;;5.80;93.30;;;;;;5062027;28;20099;-82
2022/04/11 06:43:25;;;;;;;3.58;2.40;;;5.80;93.20;;;;;;5068640;28;20076;-82
2022/04/11 06:45:51;;;;;;;6.18;3.00;;;5.90;93.00;;;;;;5050676;28;20058;-82
2022/04/11 06:48:17;;;;;;;2.60;2.13;;;6.00;92.90;;;;;;5051621;28;20059;-83
2022/04/11 06:50:43;;;;;;;2.95;2.22;;;6.10;92.80;;;;;;5051247;28;20461;-82
2022/04/11 06:53:08;;;;;;;4.15;1.98;;;6.30;92.60;;;;;;5051084;28;20024;-82
2022/04/11 06:55:34;;;;;;;6.80;2.53;;;6.40;92.10;;;;;;5050363;28;20028;-83
2022/04/11 06:58:00;;;;;;;2.45;2.05;;;6.50;92.00;;;;;;5063074;28;20028;-82
2022/04/11 07:00:25;;;;;;;2.90;1.90;;;6.60;91.80;;;;;;5054608;28;20036;-81
2022/04/11 07:02:51;;;;;;;5.28;2.40;;;6.70;91.60;;;;;;5032808;28;20035;-82
2022/04/11 07:05:17;;;;;;;2.72;2.10;;;6.80;91.50;;;;;;5059695;28;20077;-82
2022/04/11 07:07:42;;;;;;;6.00;2.45;;;7.00;91.10;;;;;;5075299;28;20020;-82
2022/04/11 07:10:09;;;;;;;9.02;1.92;;;7.20;91.10;;;;;;5055023;28;20411;-82
2022/04/11 07:12:41;;;;;;;3.80;2.35;;;7.20;90.50;;;;;;5071289;28;20142;-85
2022/04/11 07:15:08;;;;;;;3.28;2.33;;;7.40;90.40;;;;;;5089398;28;20064;-82
2022/04/11 07:17:33;;;;;;;3.72;2.05;;;7.40;90.60;;;;;;5069392;28;20020;-84
2022/04/11 07:19:59;;;;;;;3.03;1.85;;;7.60;90.50;;;;;;5052265;28;20020;-82
2022/04/11 07:22:24;;;;;;;5.18;2.10;;;7.70;90.30;;;;;;5069393;28;20025;-82
2022/04/11 07:24:50;;;;;;;3.88;2.00;;;7.90;89.90;;;;;;5052047;28;20412;-85
2022/04/11 07:27:15;;;;;;;3.78;1.60;;;8.00;89.30;;;;;;5050561;28;20031;-85
2022/04/11 07:29:41;;;;;;;3.35;1.50;;;8.00;89.10;;;;;;5051113;28;20027;-81
2022/04/11 07:32:07;;;;;;;3.80;2.45;;;8.20;88.50;;;;;;5050904;28;20020;-82
2022/04/11 07:34:32;;;;;;;2.28;1.50;;;8.30;88.60;;;;;;5068914;28;20028;-81
2022/04/11 07:36:58;;;;;;;2.72;1.35;;;8.40;88.00;;;;;;5068049;28;20075;-79
2022/04/11 07:39:23;;;;;;;4.47;1.77;;;8.40;86.70;;;;;;5067320;28;20158;-84
2022/04/11 07:41:55;;;;;;;2.25;1.48;;;8.50;87.10;;;;;;5051027;28;20013;-80
2022/04/11 07:44:24;;;;;;;3.22;1.52;;;8.50;85.50;;;;;;5051025;28;20039;-81
2022/04/11 07:46:49;;;;;;;4.25;1.52;;;8.60;86.50;;;;;;5067475;28;20024;-82
2022/04/11 07:49:15;;;;;;;8.38;1.45;;;8.60;84.10;;;;;;5049778;28;20033;-81
2022/04/11 07:51:41;;;;;;;2.30;1.20;;;8.70;83.00;;;;;;5067704;28;20024;-81
2022/04/11 07:54:06;;;;;;;1.88;1.10;;;8.80;83.00;;;;;;5050679;28;20388;-83
2022/04/11 07:56:32;;;;;;;6.30;2.60;;;8.80;84.00;;;;;;5051705;28;20493;-81
2022/04/11 07:58:58;;;;;;;2.35;1.10;;;9.00;83.30;;;;;;5069018;28;20159;-81
2022/04/11 08:01:23;;;;;;;4.05;1.40;;;9.10;82.80;;;;;;5069409;28;20033;-82
2022/04/11 08:03:49;;;;;;;6.90;1.83;;;9.10;81.70;;;;;;5070002;28;20494;-82
2022/04/11 08:06:15;;;;;;;2.25;1.00;;;9.30;82.30;;;;;;5068204;28;20537;-81
2022/04/11 08:08:47;;;;;;;3.30;1.05;;;9.40;83.30;;;;;;5049993;28;20116;-81
2022/04/11 08:11:17;;;;;;;3.03;1.70;;;9.50;80.90;;;;;;5072715;28;20046;-81
2022/04/11 08:13:43;;;;;;;1.55;0.73;;;9.50;81.10;;;;;;5073494;28;20028;-81
2022/04/11 08:16:10;;;;;;;1.70;1.10;;;9.60;80.50;;;;;;5072542;28;20437;-81
2022/04/11 08:18:36;;;;;;;5.13;0.95;;;9.70;81.10;;;;;;5053929;28;20068;-82
2022/04/11 08:21:02;;;;;;;2.33;0.82;;;9.90;79.30;;;;;;5072395;28;20025;-82
2022/04/11 08:23:28;;;;;;;2.45;0.80;;;10.10;80.60;;;;;;5070357;28;20036;-80
2022/04/11 08:25:53;;;;;;;2.33;1.05;;;10.30;80.50;;;;;;5072509;28;20115;-82
2022/04/11 08:28:22;;;;;;;1.52;0.90;;;10.50;77.80;;;;;;5074074;28;20028;-81
2022/04/11 08:30:48;;;;;;;9.35;1.00;;;10.60;77.90;;;;;;5069424;28;20020;-83
2022/04/11 08:33:14;;;;;;;2.53;0.90;;;10.80;74.50;;;;;;5069817;28;20048;-82
2022/04/11 08:35:39;;;;;;;2.47;0.90;;;11.00;76.90;;;;;;5068803;28;20064;-86
2022/04/11 08:38:05;;;;;;;1.15;0.77;;;11.10;74.50;;;;;;5049841;28;20039;-82
2022/04/11 08:40:31;;;;;;;1.40;0.93;;;11.20;74.80;;;;;;5050234;28;20024;-82
2022/04/11 08:42:56;;;;;;;3.80;1.00;;;11.30;74.10;;;;;;5051076;28;20039;-85
2022/04/11 08:45:23;;;;;;;4.15;1.10;;;11.50;74.90;;;;;;5050478;28;20082;-85
2022/04/11 08:47:56;;;;;;;1.60;0.90;;;11.60;75.20;;;;;;5041198;28;20020;-86
2022/04/11 08:50:24;;;;;;;5.05;1.00;;;11.70;72.60;;;;;;5055015;28;20084;-83
2022/04/11 08:52:51;;;;;;;2.33;0.90;;;11.90;73.80;;;;;;5054541;28;20031;-82
2022/04/11 08:55:17;;;;;;;3.63;1.00;;;12.00;68.70;;;;;;5054074;28;20024;-82
2022/04/11 08:57:42;;;;;;;5.03;2.17;;;12.00;69.40;;;;;;5071646;28;20027;-82
2022/04/11 09:00:14;;;;;;;1.85;0.75;;;12.10;71.50;;;;;;5054307;28;20028;-83
2022/04/11 09:02:42;;;;;;;1.63;0.80;;;12.10;68.80;;;;;;5071592;28;20122;-82
2022/04/11 09:05:09;;;;;;;2.13;0.70;;;12.20;69.20;;;;;;5054031;28;20060;-86
2022/04/11 09:08:01;;;;;;;1.92;0.80;;;12.30;69.80;;;;;;5071341;28;20031;-84
2022/04/11 09:10:32;;;;;;;1.30;0.80;;;12.30;70.30;;;;;;5049886;28;20036;-82
2022/04/11 09:13:00;;;;;;;0.95;0.60;;;12.40;68.30;;;;;;5072106;28;20029;-82
2022/04/11 09:15:27;;;;;;;2.40;0.85;;;12.50;70.20;;;;;;5070238;28;20172;-82
2022/04/11 09:17:57;;;;;;;2.67;0.90;;;12.60;69.80;;;;;;5071164;28;20051;-82
2022/04/11 09:20:27;;;;;;;2.25;0.50;;;12.70;71.40;;;;;;5071500;28;20093;-88
2022/04/11 09:22:53;;;;;;;3.80;1.35;;;12.80;66.50;;;;;;5053620;28;20035;-84
2022/04/11 09:25:21;;;;;;;4.82;1.08;;;12.90;67.80;;;;;;5071230;28;20395;-85
2022/04/11 09:27:48;;;;;;;1.63;0.80;;;13.00;69.40;;;;;;5070950;28;20027;-83
2022/04/11 09:30:28;;;;;;;3.88;1.00;;;13.10;66.80;;;;;;5071527;28;20030;-84
2022/04/11 09:33:01;;;;;;;5.78;0.82;;;13.30;67.00;;;;;;5083479;28;20058;-83
2022/04/11 09:35:30;;;;;;;4.15;1.52;;;13.40;65.60;;;;;;5072266;28;20024;-84
2022/04/11 09:38:15;;;;;;;1.75;0.75;;;13.50;66.00;;;;;;5045518;28;20083;-85
2022/04/11 09:40:50;;;;;;;1.10;0.73;;;13.60;63.50;;;;;;5072024;28;20020;-83
2022/04/11 09:43:18;;;;;;;2.00;0.73;;;13.80;62.80;;;;;;5068074;28;20472;-82
2022/04/11 09:45:46;;;;;;;1.77;0.90;;;14.10;63.50;;;;;;5071692;28;20534;-82
2022/04/11 09:48:16;;;;;;;2.50;0.80;;;14.30;64.20;;;;;;5058076;28;20027;-82
2022/04/11 09:50:42;;;;;;;2.53;0.75;;;14.40;61.60;;;;;;5071515;28;20028;-83
2022/04/11 09:53:19;;;;;;;2.50;0.60;;;14.50;59.20;;;;;;5073956;28;20071;-83
2022/04/11 09:55:47;;;;;;;4.30;0.90;;;14.60;59.10;;;;;;5053390;28;20031;-82
2022/04/11 09:58:13;;;;;;;1.60;0.80;;;14.70;60.60;;;;;;5071411;28;20028;-82
2022/04/11 10:00:41;;;;;;;3.55;0.88;;;14.80;59.50;;;;;;5071760;28;20155;-83
2022/04/11 10:03:07;;;;;;;4.05;0.88;;;14.80;59.60;;;;;;5071847;28;20033;-83
2022/04/11 10:05:34;;;;;;;2.58;0.77;;;14.80;58.50;;;;;;5071326;28;20082;-86
2022/04/11 10:08:02;;;;;;;1.20;0.70;;;14.70;57.60;;;;;;5070926;28;20013;-83
2022/04/11 10:10:28;;;;;;;2.95;0.80;;;14.70;57.30;;;;;;5071446;28;20465;-83
2022/04/11 10:12:54;;;;;;;1.27;0.65;;;14.80;57.40;;;;;;5071333;28;20074;-83
2022/04/11 10:15:21;;;;;;;3.20;0.70;;;14.70;58.00;;;;;;5053277;28;20021;-83
2022/04/11 10:17:49;;;;;;;5.10;1.73;;;14.70;58.30;;;;;;5053262;28;20112;-83
2022/04/11 10:20:43;;;;;;;4.88;0.88;;;14.70;59.30;;;;;;5071799;28;20078;-84
2022/04/11 10:23:40;;;;;;;1.25;0.90;;;14.70;59.30;;;;;;5070480;28;20474;-82
2022/04/11 10:26:14;;;;;;;4.25;0.98;;;14.80;56.70;;;;;;5070642;28;20056;-86
2022/04/11 10:28:48;;;;;;;1.42;0.85;;;14.80;57.50;;;;;;5070463;28;20024;-83
2022/04/11 10:31:15;;;;;;;2.00;0.70;;;14.80;57.30;;;;;;5052824;28;20052;-81
2022/04/11 10:33:55;;;;;;;2.97;1.00;;;14.80;57.40;;;;;;5070920;28;20067;-81
2022/04/11 10:36:35;;;;;;;2.33;0.60;;;14.80;57.00;;;;;;5070065;28;20024;-82
2022/04/11 10:39:16;;;;;;;1.33;0.82;;;14.80;58.70;;;;;;5052589;28;20376;-86
2022/04/11 10:41:57;;;;;;;0.90;0.60;;;14.70;57.30;;;;;;5053092;28;20461;-83
2022/04/11 10:44:33;;;;;;;1.90;0.88;;;14.70;58.30;;;;;;5066221;28;20054;-83
2022/04/11 10:49:45;;;;;;;0.80;0.65;;;15.00;57.20;;;;;;5089941;28;20063;-85
2022/04/11 10:52:36;;;;;;;4.82;0.80;;;15.10;56.10;;;;;;5073259;28;20476;-83
2022/04/11 10:55:10;;;;;;;2.88;0.43;;;15.10;54.90;;;;;;5072972;28;20366;-83
2022/04/11 10:57:42;;;;;;;3.33;0.63;;;14.90;56.30;;;;;;5072660;28;20024;-83
2022/04/11 11:00:10;;;;;;;4.95;1.60;;;14.90;57.80;;;;;;5091238;28;20031;-83
2022/04/11 11:02:48;;;;;;;0.75;0.60;;;14.90;58.40;;;;;;5053984;28;20477;-86
2022/04/11 11:05:26;;;;;;;1.80;0.73;;;15.00;57.70;;;;;;5063986;28;20032;-88
2022/04/11 11:08:09;;;;;;;2.13;0.73;;;15.10;56.10;;;;;;5048229;28;20021;-84
2022/04/11 11:10:41;;;;;;;1.42;0.60;;;15.20;59.60;;;;;;5062892;28;20039;-85
2022/04/11 11:13:35;;;;;;;3.77;0.80;;;15.40;57.10;;;;;;5052989;28;20039;-83
2022/04/11 11:16:07;;;;;;;2.25;1.02;;;15.60;55.50;;;;;;5072103;28;20587;-84
2022/04/11 11:18:51;;;;;;;1.85;0.80;;;15.70;57.50;;;;;;5052310;28;20025;-86
2022/04/11 11:21:33;;;;;;;1.75;0.60;;;15.80;54.70;;;;;;5052441;28;20020;-84
2022/04/11 11:24:08;;;;;;;1.65;0.73;;;16.00;56.60;;;;;;5052008;28;20031;-84
2022/04/11 11:26:48;;;;;;;3.60;0.70;;;16.10;53.80;;;;;;5055098;28;20016;-84
2022/04/11 11:29:16;;;;;;;1.95;0.77;;;16.00;53.20;;;;;;5076719;28;20069;-84
2022/04/11 11:31:43;;;;;;;1.73;0.70;;;15.90;54.50;;;;;;5070437;28;20051;-83
2022/04/11 11:34:14;;;;;;;2.20;0.73;;;15.80;53.40;;;;;;5088638;28;20047;-85
2022/04/11 11:36:40;;;;;;;3.00;0.80;;;15.60;51.30;;;;;;5050657;28;20549;-85
2022/04/11 11:39:20;;;;;;;2.00;0.68;;;15.40;54.00;;;;;;5069733;28;20119;-83
2022/04/11 11:41:48;;;;;;;2.53;0.60;;;15.60;56.40;;;;;;5069114;28;20036;-83
2022/04/11 11:44:13;;;;;;;0.90;0.68;;;15.70;53.60;;;;;;5071217;28;20092;-84
2022/04/11 11:46:54;;;;;;;1.27;0.75;;;15.80;53.70;;;;;;5071081;28;20070;-83
2022/04/11 11:49:22;;;;;;;3.45;1.00;;;15.80;55.40;;;;;;5085651;28;20031;-84
2022/04/11 11:51:48;;;;;;;2.58;0.60;;;15.80;51.30;;;;;;5052120;28;20025;-84
2022/04/11 11:54:14;;;;;;;2.97;0.73;;;15.80;53.20;;;;;;5066063;28;20032;-83
2022/04/11 11:56:44;;;;;;;2.20;0.70;;;15.60;52.90;;;;;;5075128;28;20028;-84
2022/04/11 11:59:15;;;;;;;1.90;0.70;;;15.60;52.80;;;;;;5052122;28;20020;-85
2022/04/11 12:04:33;;;;;;;;;;;15.60;51.30;;;;;;5084642;28;20124;-86
2022/04/11 12:06:59;;;;;;;2.15;0.90;;;15.60;53.10;;;;;;5063482;28;19994;-87
2022/04/11 12:09:33;;;;;;;1.95;0.70;;;15.60;54.70;;;;;;5076536;28;20025;-84
2022/04/11 12:11:59;;;;;;;1.63;0.60;;;15.70;52.90;;;;;;5051696;28;20024;-84
2022/04/11 12:14:25;;;;;;;1.08;0.95;;;15.70;53.40;;;;;;5052269;28;20057;-85
2022/04/11 12:16:58;;;;;;;2.60;0.80;;;15.90;53.60;;;;;;5069060;28;20029;-84
2022/04/11 12:19:50;;;;;;;0.90;0.55;;;15.90;52.70;;;;;;5069518;28;20013;-85
2022/04/11 12:22:16;;;;;;;6.43;0.90;;;16.00;54.50;;;;;;5067068;28;20488;-84
2022/04/11 12:24:42;;;;;;;1.95;0.52;;;16.10;56.40;;;;;;5057372;28;20033;-84
2022/04/11 12:27:13;;;;;;;0.95;0.70;;;16.30;52.70;;;;;;5059900;28;20074;-84
2022/04/11 12:29:41;;;;;;;1.05;0.68;;;16.40;54.20;;;;;;5047968;28;20034;-83
2022/04/11 12:32:13;;;;;;;1.80;0.75;;;16.50;53.70;;;;;;5061648;28;20021;-84
2022/04/11 12:34:40;;;;;;;0.98;0.70;;;16.60;52.30;;;;;;5054144;28;20028;-84
2022/04/11 12:37:07;;;;;;;4.32;0.63;;;16.60;50.50;;;;;;5044957;28;20266;-84
2022/04/11 12:39:56;;;;;;;3.63;0.80;;;16.60;51.10;;;;;;5072181;28;20031;-84
2022/04/11 12:42:23;;;;;;;2.38;0.80;;;16.50;51.40;;;;;;5075324;28;20493;-87
2022/04/11 12:44:59;;;;;;;2.00;0.93;;;16.40;50.00;;;;;;5059474;28;20663;-84
2022/04/11 12:47:25;;;;;;;3.65;0.80;;;16.30;50.00;;;;;;5064127;28;20020;-82
2022/04/11 12:49:55;;;;;;;3.42;0.70;;;16.40;50.80;;;;;;5069721;28;20086;-84
2022/04/11 12:52:23;;;;;;;0.90;0.60;;;16.30;51.10;;;;;;5079943;28;20016;-85
2022/04/11 12:54:59;;;;;;;1.58;0.70;;;16.40;51.40;;;;;;5059963;28;20033;-84
2022/04/11 12:57:32;;;;;;;1.48;0.70;;;16.50;51.40;;;;;;5078425;28;20013;-85
2022/04/11 13:00:16;;;;;;;1.40;0.60;;;16.50;51.60;;;;;;5076300;28;20045;-84
2022/04/11 13:02:42;;;;;;;3.78;1.05;;;16.50;49.40;;;;;;5077146;28;20025;-84